Time;durP1;ratioP1;P1;durP2;ratioP2;P2;SDS_P1;SDS_P2;PMS_P1;PMS_P2;Temp;Humidity;BMP_temperature;BMP_pressure;BME280_temperature;BME280_humidity;BME280_pressure;Samples;Min_cycle;Max_cycle;Signal;HPM_P1;HPM_P2
2021/01/14 00:01:32;;;;;;;3.83;1.93;;;;;;;-0.32;94.99;101051.56;5042093;28;20680;-72
2021/01/14 00:04:00;;;;;;;1.57;1.27;;;;;;;-0.22;95.41;101057.56;5035147;28;20199;-72
2021/01/14 00:06:27;;;;;;;2.73;1.73;;;;;;;-0.33;94.21;101049.81;5027060;28;20206;-71
2021/01/14 00:08:54;;;;;;;2.07;1.40;;;;;;;-0.26;93.44;101062.91;5027715;28;20208;-72
2021/01/14 00:11:21;;;;;;;3.90;3.20;;;;;;;-0.24;93.05;101062.00;5023357;28;20700;-72
2021/01/14 00:13:48;;;;;;;2.60;1.70;;;;;;;-0.26;92.79;101069.06;5033760;28;20212;-72
2021/01/14 00:16:16;;;;;;;2.20;1.40;;;;;;;-0.21;93.06;101080.41;5042959;28;20209;-71
2021/01/14 00:18:43;;;;;;;1.20;1.13;;;;;;;-0.12;92.54;101079.34;5038198;28;20759;-71
2021/01/14 00:21:11;;;;;;;3.83;1.80;;;;;;;-0.25;92.20;101083.13;5028436;28;20202;-72
2021/01/14 00:23:39;;;;;;;1.97;1.40;;;;;;;-0.32;92.07;101088.50;5020238;28;20192;-72
2021/01/14 00:26:06;;;;;;;3.97;1.67;;;;;;;-0.26;92.30;101086.66;5025699;28;20250;-71
2021/01/14 00:28:33;;;;;;;1.97;1.60;;;;;;;-0.37;92.23;101085.06;5031535;28;20204;-72
2021/01/14 00:31:00;;;;;;;3.47;1.90;;;;;;;-0.35;92.07;101099.09;5027875;28;20195;-72
2021/01/14 00:33:28;;;;;;;4.57;2.17;;;;;;;-0.43;92.15;101097.50;5018375;28;20235;-72
2021/01/14 00:35:55;;;;;;;4.77;2.27;;;;;;;-0.41;92.36;101120.31;5022082;28;20201;-72
2021/01/14 00:38:22;;;;;;;7.30;4.13;;;;;;;-0.35;92.34;101125.47;5028770;28;20203;-72
2021/01/14 00:40:49;;;;;;;4.03;2.10;;;;;;;-0.39;91.95;101129.06;5028715;28;20215;-72
2021/01/14 00:43:16;;;;;;;1.83;1.50;;;;;;;-0.35;92.26;101121.97;5026108;28;20205;-71
2021/01/14 00:45:43;;;;;;;3.43;1.70;;;;;;;-0.43;91.76;101130.03;5033123;28;20212;-72
2021/01/14 00:48:10;;;;;;;2.67;1.83;;;;;;;-0.49;91.93;101119.59;5038240;28;20197;-72
2021/01/14 00:50:39;;;;;;;3.57;1.80;;;;;;;-0.37;91.98;101131.69;5029163;28;20646;-72
2021/01/14 00:53:06;;;;;;;2.27;1.87;;;;;;;-0.48;91.98;101129.22;5027396;28;20205;-72
2021/01/14 00:55:33;;;;;;;4.90;1.70;;;;;;;-0.53;92.11;101144.25;5029948;28;20196;-72
2021/01/14 00:58:01;;;;;;;4.20;1.90;;;;;;;-0.52;92.27;101151.28;5021415;28;20217;-72
2021/01/14 01:00:28;;;;;;;4.27;1.90;;;;;;;-0.54;91.89;101136.38;5032214;28;20795;-72
2021/01/14 01:03:00;;;;;;;5.40;2.43;;;;;;;-0.52;92.09;101146.00;5032187;28;20692;-72
2021/01/14 01:05:27;;;;;;;4.97;2.13;;;;;;;-0.55;91.60;101153.97;5026048;28;20284;-72
2021/01/14 01:07:57;;;;;;;6.63;2.43;;;;;;;-0.50;91.87;101159.16;5025198;28;20217;-72
2021/01/14 01:10:25;;;;;;;2.20;1.50;;;;;;;-0.51;91.65;101160.94;5029606;28;20204;-71
2021/01/14 01:12:53;;;;;;;3.60;1.90;;;;;;;-0.54;91.68;101160.13;5017536;28;20220;-71
2021/01/14 01:15:21;;;;;;;5.73;1.60;;;;;;;-0.54;91.90;101168.03;5044675;28;20200;-73
2021/01/14 01:17:48;;;;;;;6.70;2.10;;;;;;;-0.52;91.34;101172.38;5031303;28;20321;-71
2021/01/14 01:20:16;;;;;;;4.00;1.70;;;;;;;-0.56;91.00;101180.38;5026770;28;20209;-72
2021/01/14 01:22:43;;;;;;;3.47;1.60;;;;;;;-0.55;91.44;101182.97;5012031;28;20712;-72
2021/01/14 01:25:12;;;;;;;7.87;2.47;;;;;;;-0.58;91.31;101183.03;5030520;28;20519;-72
2021/01/14 01:27:39;;;;;;;6.87;2.70;;;;;;;-0.54;91.87;101216.38;5029683;28;20273;-71
2021/01/14 01:30:08;;;;;;;26.33;11.63;;;;;;;-0.77;91.15;101152.53;5029936;28;20219;-72
2021/01/14 01:32:36;;;;;;;5.67;2.13;;;;;;;-0.59;91.54;101209.44;5036351;28;20248;-71
2021/01/14 01:35:04;;;;;;;4.43;2.63;;;;;;;-0.56;91.78;101201.47;5030375;28;20227;-71
2021/01/14 01:37:31;;;;;;;4.60;2.47;;;;;;;-0.57;91.69;101208.50;5020814;28;20573;-72
2021/01/14 01:39:58;;;;;;;3.93;1.80;;;;;;;-0.56;92.13;101215.53;5030917;28;20232;-71
2021/01/14 01:42:26;;;;;;;4.53;2.10;;;;;;;-0.53;92.01;101226.03;5021367;28;20208;-72
2021/01/14 01:44:53;;;;;;;2.50;1.77;;;;;;;-0.53;91.75;101230.44;5030265;28;20206;-71
2021/01/14 01:47:32;;;;;;;4.07;1.80;;;;;;;-0.49;91.64;101248.81;5037006;28;20191;-71
2021/01/14 01:50:03;;;;;;;4.00;2.00;;;;;;;-0.53;91.32;101240.97;5034670;28;20195;-71
2021/01/14 01:52:33;;;;;;;4.80;2.23;;;;;;;-0.57;91.20;101250.69;5017677;28;20468;-72
2021/01/14 01:55:02;;;;;;;5.70;2.90;;;;;;;-0.57;91.22;101250.69;5030863;28;20204;-72
2021/01/14 01:57:30;;;;;;;3.63;2.23;;;;;;;-0.59;91.56;101257.75;5019137;28;20223;-72
2021/01/14 01:59:57;;;;;;;4.10;2.03;;;;;;;-0.58;91.56;101256.00;5028824;28;20215;-72
2021/01/14 02:02:26;;;;;;;4.97;2.23;;;;;;;-0.64;91.31;101262.19;5022445;28;20233;-72
2021/01/14 02:04:55;;;;;;;2.43;1.80;;;;;;;-0.60;91.24;101268.34;5017685;28;20231;-72
2021/01/14 02:07:34;;;;;;;2.40;1.73;;;;;;;-0.63;90.85;101267.44;5013879;28;20779;-72
2021/01/14 02:10:02;;;;;;;2.70;1.70;;;;;;;-0.56;91.09;101265.63;5010402;28;20566;-71
2021/01/14 02:12:39;;;;;;;3.73;2.13;;;;;;;-0.58;90.92;101277.97;5013843;28;20207;-72
2021/01/14 02:15:08;;;;;;;7.57;4.00;;;;;;;-0.60;90.77;101308.75;5019649;28;20190;-71
2021/01/14 02:17:35;;;;;;;4.20;2.80;;;;;;;-0.64;91.06;101278.03;5021996;28;20229;-72
2021/01/14 02:20:04;;;;;;;6.33;3.10;;;;;;;-0.60;91.10;101282.41;5013377;28;20217;-72
2021/01/14 02:22:37;;;;;;;6.70;2.47;;;;;;;-0.60;90.53;101287.66;5009340;28;20212;-72
2021/01/14 02:25:10;;;;;;;7.67;3.00;;;;;;;-0.68;90.67;101287.75;5014707;28;20213;-72
2021/01/14 02:27:39;;;;;;;9.30;2.93;;;;;;;-0.68;90.41;101281.59;5012590;28;20213;-71
2021/01/14 02:30:10;;;;;;;4.27;2.20;;;;;;;-0.70;90.83;101294.81;5026695;28;20665;-72
2021/01/14 02:32:38;;;;;;;3.70;2.23;;;;;;;-0.72;90.72;101290.44;5035941;28;20747;-72
2021/01/14 02:35:06;;;;;;;7.27;2.17;;;;;;;-0.72;90.42;101293.94;5037577;28;20759;-72
2021/01/14 02:37:33;;;;;;;5.60;2.70;;;;;;;-0.66;90.69;101296.50;5010325;28;20322;-72
2021/01/14 02:40:00;;;;;;;6.23;2.73;;;;;;;-0.69;90.44;101298.31;5010297;28;20209;-72
2021/01/14 02:42:27;;;;;;;5.10;2.00;;;;;;;-0.70;90.22;101307.13;5019288;28;20207;-72
2021/01/14 02:44:55;;;;;;;5.37;2.13;;;;;;;-0.75;89.44;101306.31;5062767;28;20686;-72
2021/01/14 02:47:25;;;;;;;3.67;2.07;;;;;;;-0.76;89.96;101308.06;5016682;28;20568;-72
2021/01/14 02:49:57;;;;;;;4.47;2.23;;;;;;;-0.78;89.71;101314.25;5034702;28;20205;-71
2021/01/14 02:52:26;;;;;;;10.50;2.67;;;;;;;-0.78;88.86;101312.50;5018922;28;20208;-72
2021/01/14 02:54:54;;;;;;;4.83;2.50;;;;;;;-0.80;88.99;101332.72;5017916;28;20687;-72
2021/01/14 02:57:22;;;;;;;4.47;2.30;;;;;;;-0.80;89.71;101324.81;5016519;28;20588;-72
2021/01/14 02:59:49;;;;;;;3.43;1.93;;;;;;;-0.79;89.46;101323.06;5027720;28;20207;-72
2021/01/14 03:02:17;;;;;;;4.97;2.57;;;;;;;-0.80;89.57;101324.81;5040945;28;20203;-72
2021/01/14 03:04:44;;;;;;;4.60;2.10;;;;;;;-0.77;89.51;101329.19;5011067;28;20264;-71
2021/01/14 03:07:11;;;;;;;3.60;2.13;;;;;;;-0.81;89.19;101330.09;5020355;28;20561;-72
2021/01/14 03:09:38;;;;;;;4.07;2.23;;;;;;;-0.78;89.37;101343.25;5017505;28;20410;-72
2021/01/14 03:12:06;;;;;;;3.83;2.13;;;;;;;-0.78;88.91;101330.94;5016220;28;20693;-71
2021/01/14 03:14:33;;;;;;;3.83;2.20;;;;;;;-0.80;88.39;101345.91;5027721;28;20212;-72
2021/01/14 03:17:00;;;;;;;4.70;2.67;;;;;;;-0.81;88.17;101346.81;5020944;28;20300;-72
2021/01/14 03:19:28;;;;;;;5.30;2.67;;;;;;;-1.18;87.87;101283.09;5017294;28;20199;-72
2021/01/14 03:21:59;;;;;;;11.20;2.87;;;;;;;-0.85;87.93;101344.22;5015981;28;20312;-72
2021/01/14 03:24:26;;;;;;;4.43;2.47;;;;;;;-0.84;88.52;101351.25;5021256;28;20209;-72
2021/01/14 03:26:54;;;;;;;6.23;2.43;;;;;;;-0.84;87.99;101346.84;5029617;28;20657;-72
2021/01/14 03:29:21;;;;;;;3.57;1.97;;;;;;;-0.88;88.17;101358.31;5029808;28;20195;-72
2021/01/14 03:31:48;;;;;;;4.50;2.23;;;;;;;-0.81;87.76;101367.88;5030466;28;20207;-72
2021/01/14 03:34:15;;;;;;;3.00;1.93;;;;;;;-0.84;87.55;101369.69;5042751;28;20611;-72
2021/01/14 03:36:57;;;;;;;3.80;2.20;;;;;;;-0.83;87.95;101389.88;5019976;28;20220;-72
2021/01/14 03:39:25;;;;;;;3.53;2.27;;;;;;;-0.78;87.08;101399.50;5033172;28;20290;-71
2021/01/14 03:41:52;;;;;;;3.07;2.17;;;;;;;-1.07;87.61;101343.56;5026982;28;20203;-72
2021/01/14 03:44:19;;;;;;;5.63;2.77;;;;;;;-0.85;87.24;101376.72;5031937;28;20202;-72
2021/01/14 03:46:48;;;;;;;3.50;2.00;;;;;;;-1.07;87.54;101349.72;5034184;28;20663;-72
2021/01/14 03:49:16;;;;;;;7.63;2.80;;;;;;;-0.82;87.30;101402.19;5043519;28;20228;-71
2021/01/14 03:51:46;;;;;;;3.03;1.63;;;;;;;-0.93;87.61;101389.97;5020156;28;20700;-71
2021/01/14 03:54:14;;;;;;;4.33;2.30;;;;;;;-0.90;87.56;101401.41;5064296;28;20224;-71
2021/01/14 03:56:42;;;;;;;6.40;2.73;;;;;;;-0.82;87.47;101407.44;5021380;28;20459;-71
2021/01/14 03:59:09;;;;;;;4.73;2.33;;;;;;;-0.85;87.23;101416.28;5031271;28;20189;-72
2021/01/14 04:01:36;;;;;;;5.47;2.30;;;;;;;-0.83;87.54;101421.53;5039226;28;20572;-71
2021/01/14 04:04:04;;;;;;;5.57;2.33;;;;;;;-0.86;87.12;101413.66;5029716;28;20201;-71
2021/01/14 04:06:33;;;;;;;3.47;2.40;;;;;;;-0.84;87.46;101414.50;5025408;28;20205;-71
2021/01/14 04:09:03;;;;;;;4.50;1.97;;;;;;;-0.83;87.33;101437.34;5031759;28;20569;-71
2021/01/14 04:11:30;;;;;;;6.03;2.20;;;;;;;-0.88;87.23;101425.97;5023653;28;20286;-71
2021/01/14 04:13:57;;;;;;;5.50;2.20;;;;;;;-0.84;87.77;101435.59;5028142;28;20562;-71
2021/01/14 04:16:25;;;;;;;4.03;2.50;;;;;;;-0.83;87.62;101432.06;5020077;28;20208;-71
2021/01/14 04:18:52;;;;;;;5.33;3.23;;;;;;;-1.14;87.17;101379.66;5029026;28;20194;-71
2021/01/14 04:21:19;;;;;;;3.37;1.97;;;;;;;-0.82;87.23;101439.09;5008156;28;20236;-71
2021/01/14 04:23:46;;;;;;;4.23;2.10;;;;;;;-0.82;87.28;101447.88;5022367;28;20200;-71
2021/01/14 04:26:17;;;;;;;1.97;1.47;;;;;;;-0.88;87.35;101433.88;5027812;28;20213;-71
2021/01/14 04:28:44;;;;;;;4.40;1.80;;;;;;;-0.88;87.25;101440.03;5022953;28;20199;-71
2021/01/14 04:31:13;;;;;;;2.57;1.73;;;;;;;-0.90;86.89;101447.06;5031083;28;20202;-71
2021/01/14 04:33:58;;;;;;;3.40;1.30;;;;;;;-0.85;86.53;101445.25;5023397;28;20255;-71
2021/01/14 04:36:25;;;;;;;2.63;1.80;;;;;;;-0.87;87.18;101446.16;5030035;28;20204;-71
2021/01/14 04:38:52;;;;;;;5.13;2.03;;;;;;;-0.89;86.83;101458.50;5032236;28;20557;-71
2021/01/14 04:41:21;;;;;;;3.93;2.13;;;;;;;-0.89;87.23;101458.50;5031717;28;20254;-71
2021/01/14 04:43:50;;;;;;;3.17;2.17;;;;;;;-0.89;87.16;101469.03;5034394;28;20218;-71
2021/01/14 04:46:17;;;;;;;2.33;1.90;;;;;;;-0.91;87.01;101461.16;5030085;28;20202;-71
2021/01/14 04:48:48;;;;;;;4.37;1.90;;;;;;;-0.86;87.04;101459.34;5031249;28;20210;-71
2021/01/14 04:51:17;;;;;;;3.50;1.67;;;;;;;-0.91;87.17;101461.16;5030375;28;20725;-71
2021/01/14 04:53:46;;;;;;;2.93;2.00;;;;;;;-0.89;87.52;101475.19;5027118;28;20202;-71
2021/01/14 04:56:15;;;;;;;4.57;2.10;;;;;;;-0.94;87.27;101475.19;5019103;28;20642;-71
2021/01/14 04:58:47;;;;;;;3.87;1.67;;;;;;;-0.91;87.55;101481.34;5028218;28;20225;-71
2021/01/14 05:01:19;;;;;;;3.40;2.03;;;;;;;-0.98;88.02;101481.38;5022717;28;20518;-71
2021/01/14 05:03:49;;;;;;;5.40;2.50;;;;;;;-0.89;87.48;101495.41;5031688;28;20662;-71
2021/01/14 05:06:17;;;;;;;3.60;2.03;;;;;;;-0.98;87.67;101491.94;5031741;28;20474;-71
2021/01/14 05:08:46;;;;;;;4.20;1.73;;;;;;;-0.98;87.94;101491.06;5030146;28;20203;-71
2021/01/14 05:11:15;;;;;;;216.07;62.63;;;;;;;-1.07;87.75;101515.72;5021988;28;20662;-72
2021/01/14 05:13:44;;;;;;;3.23;1.90;;;;;;;-1.09;87.71;101509.59;5030878;28;20667;-71
2021/01/14 05:16:11;;;;;;;3.20;1.97;;;;;;;-1.12;87.77;101507.00;5012485;28;20210;-71
2021/01/14 05:18:39;;;;;;;2.20;1.47;;;;;;;-1.13;87.80;101507.00;5018264;28;20623;-71
2021/01/14 05:21:07;;;;;;;7.77;2.63;;;;;;;-1.09;88.11;101508.72;5020195;28;20206;-70
2021/01/14 05:23:34;;;;;;;3.63;2.03;;;;;;;-0.96;88.05;101511.25;5023295;28;20214;-70
2021/01/14 05:26:02;;;;;;;4.00;1.70;;;;;;;-0.98;87.89;101513.00;5028437;28;20239;-71
2021/01/14 05:28:31;;;;;;;2.77;1.80;;;;;;;-1.06;87.68;101520.13;5021331;28;20572;-70
2021/01/14 05:31:14;;;;;;;2.93;1.57;;;;;;;-1.10;87.99;101523.66;5021881;28;20208;-70
2021/01/14 05:33:41;;;;;;;3.03;1.73;;;;;;;-1.09;87.82;101529.81;5017755;28;20318;-70
2021/01/14 05:36:09;;;;;;;3.37;1.90;;;;;;;-0.99;87.34;101527.06;5015990;28;20717;-71
2021/01/14 05:38:37;;;;;;;3.37;1.90;;;;;;;-0.98;87.56;101531.47;5015492;28;20585;-70
2021/01/14 05:41:18;;;;;;;2.53;1.53;;;;;;;-1.08;87.21;101532.44;5046319;28;20423;-70
2021/01/14 05:43:54;;;;;;;5.23;1.70;;;;;;;-1.14;87.39;101534.25;5017238;28;20211;-70
2021/01/14 05:46:24;;;;;;;4.30;2.30;;;;;;;-1.21;87.39;101549.22;5023104;28;20570;-70
2021/01/14 05:48:52;;;;;;;1.70;1.20;;;;;;;-1.46;87.53;101527.41;5021544;28;20724;-71
2021/01/14 05:51:22;;;;;;;2.57;1.67;;;;;;;-1.30;87.39;101558.03;5018856;28;20194;-71
2021/01/14 05:54:00;;;;;;;3.60;2.43;;;;;;;-1.33;87.08;101562.44;5020318;28;20570;-71
2021/01/14 05:56:46;;;;;;;2.77;2.17;;;;;;;-1.37;87.32;101556.31;5022859;28;20207;-71
2021/01/14 05:59:15;;;;;;;2.00;1.33;;;;;;;-1.50;87.23;101538.88;5016839;28;20199;-71
2021/01/14 06:01:54;;;;;;;2.87;1.67;;;;;;;-1.34;86.84;101564.22;5024092;28;20199;-71
2021/01/14 06:04:23;;;;;;;2.70;2.40;;;;;;;-1.33;87.30;101562.44;5022567;28;20616;-71
2021/01/14 06:06:51;;;;;;;2.17;1.77;;;;;;;-1.37;87.06;101568.63;5018559;28;20696;-70
2021/01/14 06:09:21;;;;;;;4.67;2.00;;;;;;;-1.60;86.88;101548.53;5020479;28;20302;-71
2021/01/14 06:11:50;;;;;;;1.30;1.20;;;;;;;-1.48;86.73;101575.72;5023003;28;20203;-71
2021/01/14 06:14:29;;;;;;;4.33;2.47;;;;;;;-1.42;87.16;101579.19;5024230;28;20198;-71
2021/01/14 06:17:00;;;;;;;1.80;1.27;;;;;;;-1.48;86.84;101594.16;5023906;28;20203;-72
2021/01/14 06:19:28;;;;;;;2.80;1.77;;;;;;;-1.41;86.79;101585.34;5021987;28;20227;-72
2021/01/14 06:21:56;;;;;;;2.47;1.60;;;;;;;-1.46;86.53;101592.38;5051877;28;20238;-72
2021/01/14 06:24:26;;;;;;;2.90;1.80;;;;;;;-1.78;86.79;101563.56;5019992;28;20261;-72
2021/01/14 06:26:55;;;;;;;1.90;1.20;;;;;;;-1.48;87.02;101599.41;5016122;28;20204;-72
2021/01/14 06:29:24;;;;;;;1.87;1.37;;;;;;;-1.58;86.71;101612.59;5024211;28;20678;-72
2021/01/14 06:32:04;;;;;;;3.53;1.63;;;;;;;-1.74;86.32;101610.06;5014353;28;20745;-72
2021/01/14 06:34:33;;;;;;;2.43;1.83;;;;;;;-1.72;87.10;101622.31;5019289;28;20254;-72
2021/01/14 06:37:07;;;;;;;3.30;1.33;;;;;;;-1.62;86.76;101624.03;5018575;28;20218;-72
2021/01/14 06:39:38;;;;;;;2.63;1.87;;;;;;;-1.69;86.61;101622.31;5025537;28;20203;-73
2021/01/14 06:42:16;;;;;;;1.97;1.80;;;;;;;-1.60;86.72;101626.66;5022262;28;20214;-72
2021/01/14 06:44:49;;;;;;;1.40;1.10;;;;;;;-1.77;86.40;101626.72;5018589;28;20637;-72
2021/01/14 06:47:33;;;;;;;2.20;1.57;;;;;;;-1.75;86.42;101630.22;5023124;28;20676;-72
2021/01/14 06:50:23;;;;;;;2.07;1.40;;;;;;;-1.86;86.52;101650.41;5018115;28;20198;-72
2021/01/14 06:52:53;;;;;;;1.63;1.50;;;;;;;-1.98;86.31;101632.03;5016646;28;20670;-72
2021/01/14 06:55:23;;;;;;;2.27;1.57;;;;;;;-1.84;86.44;101648.66;5018804;28;20206;-72
2021/01/14 06:58:11;;;;;;;1.37;1.27;;;;;;;-1.81;86.64;101646.06;5022303;28;20216;-72
2021/01/14 07:00:39;;;;;;;3.27;1.70;;;;;;;-1.87;86.18;101664.47;5024566;28;20222;-72
2021/01/14 07:03:21;;;;;;;13.57;3.13;;;;;;;-1.96;86.49;101660.09;5016608;28;20207;-72
2021/01/14 07:06:06;;;;;;;1.57;1.33;;;;;;;-1.97;86.91;101660.09;5017181;28;20286;-72
2021/01/14 07:08:40;;;;;;;2.23;1.40;;;;;;;-1.92;86.85;101667.09;5023469;28;20699;-72
2021/01/14 07:11:14;;;;;;;2.23;2.00;;;;;;;-2.30;86.48;101603.16;5054661;28;20689;-72
2021/01/14 07:13:43;;;;;;;1.67;0.70;;;;;;;-1.97;86.64;101675.91;5017258;28;20887;-73
2021/01/14 07:16:14;;;;;;;3.30;1.57;;;;;;;-2.23;86.88;101639.09;5029022;28;20213;-72
2021/01/14 07:18:43;;;;;;;2.73;1.43;;;;;;;-1.90;86.97;101696.06;5032443;28;20225;-72
2021/01/14 07:21:33;;;;;;;3.60;1.80;;;;;;;-1.96;86.44;101680.28;5032637;28;20724;-72
2021/01/14 07:24:07;;;;;;;3.37;1.50;;;;;;;-1.99;86.49;101682.91;5032897;28;20202;-72
2021/01/14 07:26:39;;;;;;;4.23;1.90;;;;;;;-1.97;87.00;101697.81;5032731;28;20753;-72
2021/01/14 07:29:06;;;;;;;3.70;2.07;;;;;;;-1.95;86.49;101697.81;5032724;28;20207;-72
2021/01/14 07:31:33;;;;;;;15.43;8.47;;;;;;;-1.92;86.78;101697.81;5032399;28;20285;-72
2021/01/14 07:34:33;;;;;;;1.97;1.60;;;;;;;-1.97;86.55;101705.72;5033210;28;20241;-72
2021/01/14 07:37:08;;;;;;;2.33;1.43;;;;;;;-1.97;86.81;101704.84;5031921;28;20694;-72
2021/01/14 07:39:54;;;;;;;3.10;1.10;;;;;;;-1.89;86.59;101709.22;5034199;28;20256;-72
2021/01/14 07:42:26;;;;;;;1.73;1.10;;;;;;;-1.89;86.44;101708.34;5033231;28;20234;-72
2021/01/14 07:44:56;;;;;;;1.80;1.60;;;;;;;-2.12;86.46;101663.66;5030443;28;20701;-72
2021/01/14 07:47:28;;;;;;;2.17;1.37;;;;;;;-1.94;86.33;101710.97;5021340;28;20560;-72
2021/01/14 07:49:55;;;;;;;2.97;1.80;;;;;;;-1.95;86.26;101718.88;5020222;28;20198;-71
2021/01/14 07:52:32;;;;;;;1.53;1.10;;;;;;;-1.97;86.16;101720.63;5018971;28;20203;-71
2021/01/14 07:55:02;;;;;;;3.13;1.53;;;;;;;-1.93;86.02;101706.59;5020856;28;20678;-72
2021/01/14 07:57:30;;;;;;;1.53;1.20;;;;;;;-1.87;86.16;101717.09;5018570;28;20212;-72
2021/01/14 07:59:59;;;;;;;3.60;2.03;;;;;;;-1.90;86.29;101719.72;5019894;28;20199;-71
2021/01/14 08:02:26;;;;;;;3.43;1.57;;;;;;;-1.98;86.03;101698.69;5047662;28;20208;-72
2021/01/14 08:04:53;;;;;;;2.83;2.13;;;;;;;-1.86;86.05;101729.38;5029579;28;20324;-72
2021/01/14 08:07:25;;;;;;;1.77;1.50;;;;;;;-1.85;85.93;101731.13;5022314;28;20200;-72
2021/01/14 08:09:53;;;;;;;2.50;1.37;;;;;;;-1.82;85.60;101740.81;5022981;28;20199;-72
2021/01/14 08:12:22;;;;;;;4.57;2.17;;;;;;;-1.85;85.51;101751.31;5022259;28;20662;-72
2021/01/14 08:14:49;;;;;;;3.43;1.47;;;;;;;-1.93;85.54;101743.44;5030896;28;20691;-72
2021/01/14 08:17:26;;;;;;;3.63;1.70;;;;;;;-1.96;85.65;101746.06;5030625;28;20700;-72
2021/01/14 08:19:55;;;;;;;2.70;1.03;;;;;;;-2.04;85.72;101768.88;5032321;28;20195;-72
2021/01/14 08:22:23;;;;;;;2.33;1.60;;;;;;;-2.27;85.68;101727.63;5032212;28;20213;-72
2021/01/14 08:24:53;;;;;;;1.83;1.37;;;;;;;-2.01;85.87;101771.50;5032203;28;20218;-72
2021/01/14 08:27:29;;;;;;;2.43;1.50;;;;;;;-1.94;85.49;101778.53;5031224;28;20208;-72
2021/01/14 08:30:02;;;;;;;1.83;1.40;;;;;;;-1.96;85.73;101775.88;5022379;28;20204;-72
2021/01/14 08:32:38;;;;;;;2.63;1.30;;;;;;;-1.95;85.39;101776.75;5024769;28;20227;-73
2021/01/14 08:35:27;;;;;;;3.57;1.60;;;;;;;-1.97;85.68;101789.91;5051083;28;20256;-71
2021/01/14 08:37:55;;;;;;;3.27;1.60;;;;;;;-2.07;86.22;101782.03;5014490;28;20306;-72
2021/01/14 08:40:29;;;;;;;8.83;2.20;;;;;;;-2.08;86.58;101780.28;5015094;28;20613;-71
2021/01/14 08:43:02;;;;;;;1.77;1.23;;;;;;;-1.86;86.31;101774.13;5021103;28;20331;-72
2021/01/14 08:45:31;;;;;;;2.80;1.87;;;;;;;-1.82;86.34;101791.69;5021911;28;20576;-72
2021/01/14 08:48:10;;;;;;;1.67;1.57;;;;;;;-1.63;85.90;101789.91;5031596;28;20638;-71
2021/01/14 08:50:53;;;;;;;1.47;1.33;;;;;;;-1.69;86.01;101790.81;5030603;28;20198;-72
2021/01/14 08:53:29;;;;;;;2.00;1.30;;;;;;;-1.57;85.72;101793.41;5026596;28;20204;-70
2021/01/14 08:55:59;;;;;;;1.93;1.43;;;;;;;-1.60;85.77;101787.28;5013985;28;20607;-73
2021/01/14 08:58:35;;;;;;;1.40;1.30;;;;;;;-1.61;85.69;101791.66;5014164;28;20234;-71
2021/01/14 09:01:03;;;;;;;3.10;1.60;;;;;;;-1.55;85.35;101790.78;5024867;28;20566;-72
2021/01/14 09:03:31;;;;;;;3.70;1.50;;;;;;;-1.49;85.89;101797.81;5017379;28;20229;-72
2021/01/14 09:05:58;;;;;;;3.77;1.67;;;;;;;-1.56;85.53;101797.78;5016173;28;20238;-72
2021/01/14 09:08:25;;;;;;;3.20;1.50;;;;;;;-1.60;85.17;101796.03;5016319;28;20205;-72
2021/01/14 09:10:54;;;;;;;2.13;1.53;;;;;;;-1.49;85.14;101798.69;5014363;28;20218;-72
2021/01/14 09:13:24;;;;;;;3.83;1.40;;;;;;;-1.65;85.07;101804.84;5026435;28;20203;-71
2021/01/14 09:15:54;;;;;;;2.30;1.40;;;;;;;-1.61;85.31;101796.06;5026708;28;20584;-71
2021/01/14 09:18:30;;;;;;;3.17;1.27;;;;;;;-1.57;85.04;101792.53;5023665;28;20693;-71
2021/01/14 09:20:57;;;;;;;3.00;2.03;;;;;;;-1.52;84.95;101798.69;5020810;28;20221;-73
2021/01/14 09:23:27;;;;;;;2.77;1.57;;;;;;;-1.65;84.83;101803.06;5028413;28;20657;-72
2021/01/14 09:25:55;;;;;;;3.90;1.67;;;;;;;-1.70;85.21;101799.56;5014254;28;20215;-72
2021/01/14 09:28:26;;;;;;;1.23;1.00;;;;;;;-1.70;85.08;101794.31;5021482;28;20188;-72
2021/01/14 09:30:58;;;;;;;6.37;1.93;;;;;;;-1.39;85.07;101812.72;5024784;28;20210;-71
2021/01/14 09:33:30;;;;;;;1.60;1.33;;;;;;;-1.66;84.72;101810.97;5015207;28;20243;-71
2021/01/14 09:36:05;;;;;;;2.03;1.37;;;;;;;-1.97;84.59;101810.09;5025318;28;20218;-72
2021/01/14 09:38:38;;;;;;;2.47;1.30;;;;;;;-1.85;84.85;101836.41;5026764;28;20230;-72
2021/01/14 09:41:06;;;;;;;4.83;1.43;;;;;;;-1.90;84.33;101830.28;5024376;28;20570;-71
2021/01/14 09:43:38;;;;;;;2.83;1.13;;;;;;;-1.97;84.83;101825.88;5021292;28;20198;-70
2021/01/14 09:46:09;;;;;;;1.20;1.03;;;;;;;-1.85;84.86;101823.25;5022763;28;20245;-70
2021/01/14 09:48:37;;;;;;;2.63;1.10;;;;;;;-1.91;84.85;101820.63;5018605;28;20214;-70
2021/01/14 09:51:09;;;;;;;2.20;1.20;;;;;;;-1.86;84.87;101826.75;5047780;28;20207;-70
2021/01/14 09:53:42;;;;;;;1.47;1.27;;;;;;;-1.85;85.15;101828.50;5025718;28;20206;-70
2021/01/14 09:56:15;;;;;;;1.77;1.40;;;;;;;-1.75;84.59;101832.06;5017398;28;20195;-70
2021/01/14 09:58:46;;;;;;;0.93;0.93;;;;;;;-2.17;84.40;101788.13;5020649;28;20222;-70
2021/01/14 10:01:16;;;;;;;1.20;1.10;;;;;;;-1.87;84.29;101823.25;5017260;28;20191;-70
2021/01/14 10:03:48;;;;;;;2.20;1.50;;;;;;;-1.79;83.91;101819.78;5016788;28;20577;-70
2021/01/14 10:06:17;;;;;;;2.10;1.00;;;;;;;-1.89;84.07;101829.41;5017070;28;20289;-70
2021/01/14 10:08:48;;;;;;;1.73;1.30;;;;;;;-2.00;84.06;101825.88;5016795;28;20203;-70
2021/01/14 10:11:19;;;;;;;1.20;1.00;;;;;;;-2.01;83.86;101829.41;5016697;28;20195;-69
2021/01/14 10:13:52;;;;;;;2.70;1.23;;;;;;;-1.81;84.24;101832.06;5021171;28;20215;-70
2021/01/14 10:16:21;;;;;;;3.97;0.93;;;;;;;-1.72;84.05;101832.06;5015941;28;20290;-70
2021/01/14 10:18:48;;;;;;;3.00;1.40;;;;;;;-1.70;84.02;101840.81;5014456;28;20219;-70
2021/01/14 10:21:22;;;;;;;1.80;1.27;;;;;;;-1.96;82.99;101817.13;5019760;28;20234;-70
2021/01/14 10:23:50;;;;;;;5.50;1.20;;;;;;;-1.67;83.60;101830.28;5021442;28;20203;-70
2021/01/14 10:26:28;;;;;;;7.47;1.63;;;;;;;-1.52;83.47;101834.69;5019883;28;20560;-71
2021/01/14 10:28:56;;;;;;;4.87;1.40;;;;;;;-1.59;83.55;101834.66;5017580;28;20226;-70
2021/01/14 10:31:34;;;;;;;5.57;1.27;;;;;;;-1.62;82.85;101845.19;5015296;28;20203;-71
2021/01/14 10:34:02;;;;;;;1.23;1.13;;;;;;;-1.78;82.43;101843.47;5015485;28;20276;-70
2021/01/14 10:36:46;;;;;;;1.17;0.97;;;;;;;-1.67;83.08;101846.97;5023165;28;20223;-70
2021/01/14 10:39:17;;;;;;;1.40;1.10;;;;;;;-1.75;83.26;101848.72;5009997;28;20219;-70
2021/01/14 10:41:46;;;;;;;1.40;1.20;;;;;;;-1.75;83.31;101847.84;5014890;28;20626;-70
2021/01/14 10:44:14;;;;;;;2.33;1.10;;;;;;;-1.80;82.72;101847.84;5025743;28;20218;-71
2021/01/14 10:46:42;;;;;;;1.77;1.13;;;;;;;-1.74;82.84;101852.22;5019989;28;20203;-71
2021/01/14 10:49:11;;;;;;;1.27;1.10;;;;;;;-1.75;83.38;101848.72;5016633;28;20191;-70
2021/01/14 10:51:40;;;;;;;1.53;1.20;;;;;;;-1.95;84.19;101860.97;5020963;28;20200;-71
2021/01/14 10:54:08;;;;;;;5.00;1.73;;;;;;;-1.99;85.20;101859.22;5059354;28;20199;-71
2021/01/14 10:56:53;;;;;;;1.17;1.07;;;;;;;-2.01;84.68;101850.44;5016522;28;20206;-70
2021/01/14 10:59:24;;;;;;;1.80;1.00;;;;;;;-2.07;84.13;101861.84;5016994;28;20219;-70
2021/01/14 11:02:05;;;;;;;0.90;0.90;;;;;;;-2.20;84.52;101855.66;5015951;28;20214;-71
2021/01/14 11:04:32;;;;;;;1.00;0.90;;;;;;;-2.20;84.12;101858.28;5034973;28;20205;-70
2021/01/14 11:07:11;;;;;;;1.53;1.40;;;;;;;-2.16;84.09;101855.66;5033985;28;20209;-70
2021/01/14 11:09:50;;;;;;;1.67;1.20;;;;;;;-2.22;83.40;101851.28;5034895;28;20212;-70
2021/01/14 11:12:18;;;;;;;1.23;1.13;;;;;;;-2.25;83.62;101846.88;5020680;28;20259;-70
2021/01/14 11:14:59;;;;;;;1.27;1.17;;;;;;;-1.99;84.17;101848.69;5035896;28;20281;-70
2021/01/14 11:17:28;;;;;;;1.43;1.20;;;;;;;-2.06;83.56;101841.66;5036058;28;20210;-70
2021/01/14 11:20:02;;;;;;;1.57;0.90;;;;;;;-1.97;83.61;101844.31;5036190;28;20198;-70
2021/01/14 11:22:29;;;;;;;1.43;1.33;;;;;;;-2.06;83.05;101852.19;5034098;28;20206;-70
2021/01/14 11:24:57;;;;;;;3.43;1.30;;;;;;;-2.05;83.63;101844.31;5019729;28;20207;-70
2021/01/14 11:27:29;;;;;;;2.07;1.10;;;;;;;-1.97;83.44;101841.69;5028895;28;20770;-70
2021/01/14 11:29:57;;;;;;;0.93;0.93;;;;;;;-1.97;83.21;101850.44;5027943;28;20278;-70
2021/01/14 11:32:25;;;;;;;0.80;0.80;;;;;;;-1.95;83.54;101842.56;5033525;28;20209;-70
2021/01/14 11:34:55;;;;;;;1.27;1.03;;;;;;;-1.99;83.08;101853.97;5026658;28;20234;-70
2021/01/14 11:37:22;;;;;;;2.40;1.10;;;;;;;-2.07;82.98;101853.06;5029708;28;20203;-70
2021/01/14 11:39:49;;;;;;;1.47;0.87;;;;;;;-2.07;82.75;101845.19;5028676;28;20260;-69